Allisonia, Virginia
Current Conditions -  °F | °C
As of 8:55 PM on Monday 20 Oct 2014 (Local Time) from KPSK Reporting Station
Overcast Overcast  
Wind Chill: 12°   Ceiling: 10000
Heat Index: 12°   Visibility: 10mi
Dew Point:   Wind: 3mph
Humidity: 80%   Direction: 210°SSW
Pressure: 29.99"   Gusts: NA
Location:  36.9752°N, 80.6434°W
Report Text: KPSK 210055Z AUTO 21003KT 10SM SCT075 BKN100 OVC120 12/09 A2999 RMK AO2 T01210088
Loading
Personal Weather Stations






























Interactive Weather Map New forecast layout! Learn more

10-Day Weather Forecast

Advertisements
Track Severe Weather on mobile